Terminal Aerodrome Forecast
Issued by NWS Amarillo, TX

Home | Current Version | Previous Version | Text Only | Print | Product List | Glossary On
Versions: 1 2 3 4 5 6 7 8 9 10 11 12 13
000
FTUS44 KAMA 270500
TAFDHT
TAF
KDHT 270520Z 2706/2806 13007KT P6SM BKN300
     FM271000 VRB06KT P6SM SCT300
     FM271500 21014G22KT P6SM SCT070 SCT300
     FM272300 18014G21KT P6SM SCT040 BKN120 OVC300=

USA.gov is the U.S. government's official web portal to all federal, state and local government web resources and services.